createdAt,value
2023-04-02T00:00:36.366Z,99.99
2023-04-02T00:01:36.231Z,99.99
2023-04-02T00:02:36.336Z,99.99
2023-04-02T00:03:36.286Z,99.99
2023-04-02T00:04:36.395Z,99.99
2023-04-02T00:05:36.322Z,99.99
2023-04-02T00:06:36.146Z,99.99
2023-04-02T00:07:36.189Z,99.99
2023-04-02T00:08:36.132Z,99.99
2023-04-02T00:09:36.145Z,99.99
2023-04-02T00:10:36.223Z,99.99
2023-04-02T00:11:36.115Z,99.99
2023-04-02T00:12:36.068Z,99.99
2023-04-02T00:13:36.076Z,99.99
2023-04-02T00:14:36.044Z,99.99
2023-04-02T00:15:36.368Z,99.99
2023-04-02T00:16:36.206Z,99.99
2023-04-02T00:17:36.048Z,99.99
2023-04-02T00:18:36.034Z,99.99
2023-04-02T00:19:36.045Z,99.99
2023-04-02T00:20:36.021Z,99.99
2023-04-02T00:21:37.228Z,99.99
2023-04-02T00:22:36.016Z,99.99
2023-04-02T00:23:35.995Z,99.65
2023-04-02T00:24:36.157Z,99.76
2023-04-02T00:25:36.261Z,99.96
2023-04-02T00:26:36.082Z,99.96
2023-04-02T00:27:35.915Z,99.99
2023-04-02T00:28:35.756Z,99.86
2023-04-02T00:29:35.908Z,99.55
2023-04-02T00:30:35.898Z,99.96
2023-04-02T00:31:36.015Z,99.99
2023-04-02T00:32:35.913Z,99.96
2023-04-02T00:33:35.880Z,99.99
2023-04-02T00:34:35.883Z,99.99
2023-04-02T00:35:36.193Z,99.99
2023-04-02T00:36:35.943Z,99.99
2023-04-02T00:37:35.863Z,99.99
2023-04-02T00:38:35.773Z,99.99
2023-04-02T00:39:35.769Z,99.99
2023-04-02T00:40:35.768Z,99.99
2023-04-02T00:41:35.763Z,99.99
2023-04-02T00:42:35.860Z,99.99
2023-04-02T00:43:35.751Z,99.99
2023-04-02T00:44:35.729Z,99.99
2023-04-02T00:45:35.986Z,99.99
2023-04-02T00:46:35.748Z,99.99
2023-04-02T00:47:35.898Z,99.99
2023-04-02T00:48:35.715Z,99.99
2023-04-02T00:49:35.693Z,99.99
2023-04-02T00:50:35.518Z,99.99
2023-04-02T00:51:35.591Z,99.91
2023-04-02T00:52:35.745Z,99.99
2023-04-02T00:53:35.710Z,99.99
2023-04-02T00:54:35.676Z,99.99
2023-04-02T00:55:35.930Z,99.99
2023-04-02T00:56:35.584Z,99.99
2023-04-02T00:57:35.656Z,99.99
2023-04-02T00:58:35.645Z,99.99
2023-04-02T00:59:35.654Z,99.95
2023-04-02T01:00:35.622Z,99.99
2023-04-02T01:01:35.617Z,99.99
2023-04-02T01:02:35.676Z,99.85
2023-04-02T01:03:35.733Z,99.64
2023-04-02T01:04:35.648Z,99.99
2023-04-02T01:05:35.867Z,99.99
2023-04-02T01:06:35.546Z,99.54
2023-04-02T01:07:35.493Z,99.54
2023-04-02T01:08:35.511Z,99.43
2023-04-02T01:09:35.577Z,99.74
2023-04-02T01:10:35.520Z,99.85
2023-04-02T01:11:35.530Z,99.43
2023-04-02T01:12:35.532Z,99.33
2023-04-02T01:13:35.407Z,99.43
2023-04-02T01:14:35.515Z,99.54
2023-04-02T01:15:35.675Z,99.64
2023-04-02T01:16:35.404Z,99.85
2023-04-02T01:17:35.395Z,99.95
2023-04-02T01:18:35.374Z,99.95
2023-04-02T01:19:35.449Z,99.99
2023-04-02T01:20:35.452Z,99.99
2023-04-02T01:21:35.369Z,99.99
2023-04-02T01:22:35.462Z,99.99
2023-04-02T01:23:35.372Z,99.99
2023-04-02T01:24:35.316Z,99.99
2023-04-02T01:25:35.436Z,99.90
2023-04-02T01:26:35.295Z,99.99
2023-04-02T01:27:35.293Z,99.99
2023-04-02T01:28:35.341Z,99.99
2023-04-02T01:29:35.278Z,99.99
2023-04-02T01:30:35.275Z,99.99
2023-04-02T01:31:35.260Z,99.99
2023-04-02T01:32:35.245Z,99.99
2023-04-02T01:33:35.337Z,99.99
2023-04-02T01:34:35.197Z,99.99
2023-04-02T01:35:35.417Z,99.99
2023-04-02T01:36:35.301Z,99.99
2023-04-02T01:37:35.233Z,99.99
2023-04-02T01:38:35.227Z,99.99
2023-04-02T01:39:35.220Z,99.99
2023-04-02T01:40:35.192Z,99.99
2023-04-02T01:41:35.271Z,99.99
2023-04-02T01:42:35.274Z,99.99
2023-04-02T01:43:35.187Z,99.99
2023-04-02T01:44:35.197Z,99.99
2023-04-02T01:45:35.628Z,99.99
2023-04-02T01:46:35.210Z,99.99
2023-04-02T01:47:35.217Z,99.99
2023-04-02T01:48:35.164Z,99.99
2023-04-02T01:49:35.082Z,99.99
2023-04-02T01:50:35.066Z,99.99
2023-04-02T01:51:34.998Z,99.99
2023-04-02T01:52:35.059Z,99.99
2023-04-02T01:53:35.146Z,99.99
2023-04-02T01:54:35.060Z,99.99
2023-04-02T01:55:35.131Z,99.99
2023-04-02T01:56:35.066Z,99.99
2023-04-02T01:57:35.016Z,99.99
2023-04-02T01:58:35.080Z,99.99
2023-04-02T01:59:34.968Z,99.99
2023-04-02T02:00:34.965Z,99.99
2023-04-02T02:01:34.982Z,99.99
2023-04-02T02:02:35.044Z,99.99
2023-04-02T02:03:35.000Z,99.99
2023-04-02T02:04:34.883Z,99.99
2023-04-02T02:05:35.049Z,99.99
2023-04-02T02:06:34.903Z,99.99
2023-04-02T02:07:34.930Z,99.99
2023-04-02T02:08:34.935Z,99.99
2023-04-02T02:09:34.864Z,99.99
2023-04-02T02:10:34.870Z,99.99
2023-04-02T02:11:34.870Z,99.99
2023-04-02T02:12:34.786Z,99.99
2023-04-02T02:13:34.816Z,99.99
2023-04-02T02:14:34.866Z,99.99
2023-04-02T02:15:34.984Z,99.99
2023-04-02T02:16:34.811Z,99.99
2023-04-02T02:17:34.933Z,99.99
2023-04-02T02:18:34.762Z,99.99
2023-04-02T02:19:34.854Z,99.99
2023-04-02T02:20:34.850Z,99.99
2023-04-02T02:21:34.779Z,99.99
2023-04-02T02:22:34.801Z,99.99
2023-04-02T02:23:34.551Z,99.99
2023-04-02T02:24:34.547Z,99.99
2023-04-02T02:25:34.910Z,99.99
2023-04-02T02:26:34.732Z,99.99
2023-04-02T02:27:34.720Z,99.99
2023-04-02T02:28:34.720Z,99.99
2023-04-02T02:29:34.638Z,99.99
2023-04-02T02:30:34.780Z,99.99
2023-04-02T02:31:34.673Z,99.99
2023-04-02T02:32:34.512Z,99.99
2023-04-02T02:33:34.700Z,99.99
2023-04-02T02:34:34.593Z,99.99
2023-04-02T02:35:35.007Z,99.99
2023-04-02T02:36:34.676Z,99.99
2023-04-02T02:37:34.590Z,99.99
2023-04-02T02:38:34.514Z,99.99
2023-04-02T02:39:34.612Z,99.99
2023-04-02T02:40:34.550Z,99.99
2023-04-02T02:41:34.662Z,99.99
2023-04-02T02:42:34.512Z,99.99
2023-04-02T02:43:34.519Z,99.99
2023-04-02T02:44:34.527Z,99.99
2023-04-02T02:45:34.668Z,99.99
2023-04-02T02:46:34.614Z,99.99
2023-04-02T02:47:34.526Z,99.99
2023-04-02T02:48:34.517Z,99.99
2023-04-02T02:49:34.506Z,99.99
2023-04-02T02:50:34.484Z,99.99
2023-04-02T02:51:34.458Z,99.99
2023-04-02T02:52:34.506Z,99.99
2023-04-02T02:53:34.425Z,99.99
2023-04-02T02:54:34.409Z,99.99
2023-04-02T02:55:34.677Z,99.99
2023-04-02T02:56:34.511Z,99.99
2023-04-02T02:57:34.509Z,99.87
2023-04-02T02:58:34.397Z,99.14
2023-04-02T02:59:34.365Z,99.35
2023-04-02T03:00:34.351Z,99.35
2023-04-02T03:01:34.375Z,99.66
2023-04-02T03:02:34.577Z,99.66
2023-04-02T03:03:34.703Z,99.98
2023-04-02T03:04:34.370Z,99.45
2023-04-02T03:05:34.578Z,99.45
2023-04-02T03:06:34.295Z,99.66
2023-04-02T03:07:34.399Z,99.76
2023-04-02T03:08:34.349Z,99.66
2023-04-02T03:09:34.173Z,99.24
2023-04-02T03:10:34.303Z,98.87
2023-04-02T03:11:34.298Z,98.97
2023-04-02T03:12:34.160Z,98.87
2023-04-02T03:13:34.188Z,98.25
2023-04-02T03:14:34.309Z,97.72
2023-04-02T03:15:34.431Z,97.62
2023-04-02T03:16:34.283Z,97.52
2023-04-02T03:17:34.300Z,97.83
2023-04-02T03:18:34.343Z,97.94
2023-04-02T03:19:34.252Z,98.25
2023-04-02T03:20:34.243Z,98.46
2023-04-02T03:21:34.230Z,98.46
2023-04-02T03:22:34.217Z,98.46
2023-04-02T03:23:34.290Z,98.35
2023-04-02T03:24:34.200Z,98.35
2023-04-02T03:25:34.437Z,97.72
2023-04-02T03:26:34.099Z,97.52
2023-04-02T03:27:34.097Z,97.20
2023-04-02T03:28:34.132Z,96.48
2023-04-02T03:29:34.072Z,96.69
2023-04-02T03:30:33.988Z,96.79
2023-04-02T03:31:34.117Z,96.69
2023-04-02T03:32:34.141Z,97.31
2023-04-02T03:33:34.182Z,96.26
2023-04-02T03:34:34.077Z,96.37
2023-04-02T03:35:34.374Z,96.48
2023-04-02T03:36:34.028Z,96.79
2023-04-02T03:37:34.011Z,96.89
2023-04-02T03:38:34.006Z,96.58
2023-04-02T03:39:34.088Z,96.48
2023-04-02T03:40:34.005Z,95.95
2023-04-02T03:41:34.002Z,96.37
2023-04-02T03:42:34.006Z,96.62
2023-04-02T03:43:33.933Z,96.52
2023-04-02T03:44:33.928Z,96.31
2023-04-02T03:45:34.304Z,96.21
2023-04-02T03:46:33.995Z,96.52
2023-04-02T03:47:33.955Z,96.83
2023-04-02T03:48:33.918Z,97.14
2023-04-02T03:49:33.904Z,97.41
2023-04-02T03:50:33.727Z,97.31
2023-04-02T03:51:33.948Z,96.79
2023-04-02T03:52:33.855Z,95.79
2023-04-02T03:53:33.899Z,95.58
2023-04-02T03:54:33.869Z,95.27
2023-04-02T03:55:34.366Z,95.58
2023-04-02T03:56:33.833Z,96.31
2023-04-02T03:57:33.838Z,96.11
2023-04-02T03:58:33.787Z,95.79
2023-04-02T03:59:33.696Z,95.58
2023-04-02T04:00:33.696Z,94.75
2023-04-02T04:01:33.704Z,94.96
2023-04-02T04:02:33.899Z,95.06
2023-04-02T04:03:33.818Z,94.96
2023-04-02T04:04:33.666Z,95.27
2023-04-02T04:05:33.940Z,95.27
2023-04-02T04:06:33.803Z,95.68
2023-04-02T04:07:33.883Z,95.68
2023-04-02T04:08:33.795Z,95.58
2023-04-02T04:09:33.779Z,95.37
2023-04-02T04:10:33.776Z,95.68
2023-04-02T04:11:33.627Z,95.79
2023-04-02T04:12:33.755Z,96.21
2023-04-02T04:13:33.703Z,96.00
2023-04-02T04:14:33.758Z,95.27
2023-04-02T04:15:33.884Z,94.64
2023-04-02T04:16:33.684Z,95.17
2023-04-02T04:17:33.705Z,95.27
2023-04-02T04:18:33.586Z,95.89
2023-04-02T04:19:33.636Z,95.68
2023-04-02T04:20:33.621Z,95.79
2023-04-02T04:21:33.597Z,95.17
2023-04-02T04:22:33.673Z,95.68
2023-04-02T04:23:33.580Z,95.48
2023-04-02T04:24:33.628Z,95.89
2023-04-02T04:25:34.025Z,95.37
2023-04-02T04:26:33.518Z,95.17
2023-04-02T04:27:33.707Z,95.27
2023-04-02T04:28:33.626Z,95.17
2023-04-02T04:29:33.520Z,95.27
2023-04-02T04:30:33.372Z,94.96
2023-04-02T04:31:33.547Z,95.37
2023-04-02T04:32:33.604Z,95.48
2023-04-02T04:33:33.504Z,95.68
2023-04-02T04:34:33.469Z,95.42
2023-04-02T04:35:33.433Z,94.96
2023-04-02T04:36:33.371Z,95.00
2023-04-02T04:37:33.462Z,95.06
2023-04-02T04:38:33.359Z,95.48
2023-04-02T04:39:33.541Z,95.27
2023-04-02T04:40:33.409Z,95.48
2023-04-02T04:41:33.379Z,95.42
2023-04-02T04:42:33.379Z,95.62
2023-04-02T04:43:33.391Z,96.04
2023-04-02T04:44:33.246Z,96.25
2023-04-02T04:45:33.532Z,95.52
2023-04-02T04:46:33.325Z,95.94
2023-04-02T04:47:33.337Z,96.04
2023-04-02T04:48:35.129Z,95.73
2023-04-02T04:49:33.313Z,95.73
2023-04-02T04:50:33.303Z,95.52
2023-04-02T04:51:33.274Z,95.31
2023-04-02T04:52:33.261Z,95.42
2023-04-02T04:53:33.249Z,95.00
2023-04-02T04:54:33.206Z,94.79
2023-04-02T04:55:33.608Z,94.90
2023-04-02T04:56:33.191Z,94.58
2023-04-02T04:57:33.166Z,94.48
2023-04-02T04:58:33.138Z,94.58
2023-04-02T04:59:33.205Z,94.79
2023-04-02T05:00:33.184Z,94.58
2023-04-02T05:01:33.182Z,94.69
2023-04-02T05:02:33.157Z,94.58
2023-04-02T05:03:33.115Z,95.10
2023-04-02T05:04:33.206Z,95.00
2023-04-02T05:05:33.262Z,94.90
2023-04-02T05:06:33.070Z,95.00
2023-04-02T05:07:33.126Z,95.10
2023-04-02T05:08:33.041Z,94.69
2023-04-02T05:09:33.034Z,94.37
2023-04-02T05:10:33.093Z,93.96
2023-04-02T05:11:33.245Z,94.17
2023-04-02T05:12:33.147Z,94.17
2023-04-02T05:13:33.063Z,93.33
2023-04-02T05:14:32.982Z,93.65
2023-04-02T05:15:33.153Z,94.17
2023-04-02T05:16:33.054Z,94.27
2023-04-02T05:17:33.126Z,93.44
2023-04-02T05:18:32.984Z,93.02
2023-04-02T05:19:32.967Z,93.44
2023-04-02T05:20:32.948Z,93.96
2023-04-02T05:21:33.016Z,93.44
2023-04-02T05:22:33.010Z,93.75
2023-04-02T05:23:32.911Z,93.02
2023-04-02T05:24:32.901Z,93.23
2023-04-02T05:25:33.125Z,93.23
2023-04-02T05:26:32.967Z,93.65
2023-04-02T05:27:32.882Z,93.23
2023-04-02T05:28:32.965Z,93.08
2023-04-02T05:29:32.954Z,93.71
2023-04-02T05:30:32.882Z,93.40
2023-04-02T05:31:32.977Z,93.50
2023-04-02T05:32:32.853Z,93.29
2023-04-02T05:33:32.860Z,93.18
2023-04-02T05:34:32.891Z,93.18
2023-04-02T05:35:33.058Z,93.29
2023-04-02T05:36:32.822Z,92.56
2023-04-02T05:37:32.835Z,92.66
2023-04-02T05:38:32.822Z,92.56
2023-04-02T05:39:32.809Z,92.56
2023-04-02T05:40:32.828Z,92.46
2023-04-02T05:41:32.746Z,92.14
2023-04-02T05:42:32.767Z,92.56
2023-04-02T05:43:32.856Z,92.35
2023-04-02T05:44:32.779Z,91.83
2023-04-02T05:45:32.889Z,91.93
2023-04-02T05:46:32.788Z,91.72
2023-04-02T05:47:32.738Z,92.03
2023-04-02T05:48:32.695Z,91.52
2023-04-02T05:49:32.772Z,91.93
2023-04-02T05:50:32.766Z,91.52
2023-04-02T05:51:32.692Z,91.93
2023-04-02T05:52:32.754Z,91.52
2023-04-02T05:53:32.668Z,91.62
2023-04-02T05:54:32.659Z,90.79
2023-04-02T05:55:33.027Z,91.72
2023-04-02T05:56:32.653Z,91.62
2023-04-02T05:58:36.851Z,91.00
2023-04-02T05:59:32.662Z,91.10
2023-04-02T06:00:32.632Z,90.89
2023-04-02T06:01:32.675Z,90.68
2023-04-02T06:02:32.588Z,90.58
2023-04-02T06:03:32.682Z,90.26
2023-04-02T06:04:32.562Z,90.26
2023-04-02T06:05:32.679Z,90.47
2023-04-02T06:06:32.666Z,90.58
2023-04-02T06:07:32.589Z,90.37
2023-04-02T06:08:32.574Z,89.85
2023-04-02T06:09:32.681Z,90.06
2023-04-02T06:10:32.505Z,90.47
2023-04-02T06:11:32.510Z,90.89
2023-04-02T06:12:32.608Z,90.68
2023-04-02T06:13:32.436Z,90.37
2023-04-02T06:14:32.449Z,90.22
2023-04-02T06:15:32.461Z,90.16
2023-04-02T06:16:32.415Z,90.12
2023-04-02T06:17:32.476Z,90.22
2023-04-02T06:18:32.399Z,89.29
2023-04-02T06:19:32.405Z,89.70
2023-04-02T06:20:32.413Z,89.81
2023-04-02T06:21:32.359Z,90.12
2023-04-02T06:22:32.417Z,90.01
2023-04-02T06:23:32.401Z,90.12
2023-04-02T06:24:32.329Z,88.76
2023-04-02T06:25:32.323Z,87.83
2023-04-02T06:26:32.310Z,88.35
2023-04-02T06:27:32.277Z,88.76
2023-04-02T06:28:32.332Z,88.98
2023-04-02T06:29:32.394Z,88.45
2023-04-02T06:30:32.329Z,88.45
2023-04-02T06:31:32.314Z,88.56
2023-04-02T06:32:32.375Z,88.14
2023-04-02T06:33:32.310Z,87.52
2023-04-02T06:34:32.210Z,88.14
2023-04-02T06:35:32.284Z,88.35
2023-04-02T06:36:32.279Z,88.76
2023-04-02T06:37:32.255Z,88.76
2023-04-02T06:38:32.331Z,87.41
2023-04-02T06:39:32.181Z,87.62
2023-04-02T06:40:32.278Z,87.62
2023-04-02T06:41:32.212Z,86.68
2023-04-02T06:42:32.200Z,87.20
2023-04-02T06:43:32.197Z,87.52
2023-04-02T06:44:32.170Z,86.89
2023-04-02T06:45:32.272Z,88.10
2023-04-02T06:46:32.290Z,87.89
2023-04-02T06:47:32.164Z,87.99
2023-04-02T06:48:32.128Z,86.58
2023-04-02T06:49:32.129Z,86.58
2023-04-02T06:50:32.202Z,86.68
2023-04-02T06:51:32.109Z,86.27
2023-04-02T06:52:33.978Z,87.27
2023-04-02T06:53:32.094Z,87.37
2023-04-02T06:54:32.047Z,86.96
2023-04-02T06:55:32.134Z,86.54
2023-04-02T06:56:32.026Z,87.16
2023-04-02T06:57:32.212Z,86.54
2023-04-02T06:58:32.090Z,86.85
2023-04-02T06:59:32.028Z,86.12
2023-04-02T07:00:32.003Z,87.06
2023-04-02T07:01:32.123Z,85.71
2023-04-02T07:02:32.012Z,85.39
2023-04-02T07:03:31.970Z,85.71
2023-04-02T07:04:32.119Z,86.43
2023-04-02T07:05:31.951Z,84.98
2023-04-02T07:06:32.028Z,85.50
2023-04-02T07:07:31.956Z,86.43
2023-04-02T07:08:31.892Z,85.60
2023-04-02T07:09:31.906Z,85.56
2023-04-02T07:10:31.911Z,84.66
2023-04-02T07:11:32.007Z,85.39
2023-04-02T07:12:31.864Z,84.04
2023-04-02T07:13:31.928Z,84.66
2023-04-02T07:14:31.857Z,84.35
2023-04-02T07:15:31.855Z,84.66
2023-04-02T07:16:31.971Z,84.66
2023-04-02T07:17:31.902Z,84.04
2023-04-02T07:18:31.831Z,84.25
2023-04-02T07:19:31.885Z,83.83
2023-04-02T07:20:31.816Z,84.25
2023-04-02T07:21:31.905Z,84.00
2023-04-02T07:22:31.763Z,83.90
2023-04-02T07:23:31.744Z,84.11
2023-04-02T07:24:31.735Z,84.17
2023-04-02T07:25:31.733Z,83.13
2023-04-02T07:26:31.801Z,83.54
2023-04-02T07:27:31.704Z,83.86
2023-04-02T07:28:31.768Z,82.82
2023-04-02T07:29:31.818Z,83.03
2023-04-02T07:30:31.802Z,83.23
2023-04-02T07:31:31.758Z,83.34
2023-04-02T07:32:31.693Z,83.30
2023-04-02T07:33:31.693Z,82.78
2023-04-02T07:34:31.714Z,80.91
2023-04-02T07:35:31.675Z,80.60
2023-04-02T07:36:31.659Z,81.32
2023-04-02T07:37:31.653Z,81.29
2023-04-02T07:38:31.650Z,80.35
2023-04-02T07:39:31.636Z,79.90
2023-04-02T07:40:31.707Z,80.73
2023-04-02T07:41:31.614Z,80.35
2023-04-02T07:42:31.605Z,80.87
2023-04-02T07:43:31.666Z,80.77
2023-04-02T07:44:31.579Z,80.21
2023-04-02T07:45:31.644Z,78.47
2023-04-02T07:46:31.527Z,78.30
2023-04-02T07:47:31.516Z,79.44
2023-04-02T07:48:31.494Z,78.61
2023-04-02T07:49:31.570Z,79.13
2023-04-02T07:50:31.474Z,79.24
2023-04-02T07:51:31.448Z,78.92
2023-04-02T07:52:31.534Z,78.23
2023-04-02T07:53:31.475Z,76.95
2023-04-02T07:54:31.434Z,75.92
2023-04-02T07:55:31.435Z,74.01
2023-04-02T07:56:31.410Z,74.43
2023-04-02T07:57:31.549Z,72.36
2023-04-02T07:58:31.401Z,71.12
2023-04-02T07:59:31.398Z,70.84
2023-04-02T08:00:31.425Z,71.98
2023-04-02T08:01:31.505Z,73.60
2023-04-02T08:02:31.525Z,75.43
2023-04-02T08:03:31.525Z,76.71
2023-04-02T08:04:31.369Z,77.20
2023-04-02T08:05:31.364Z,77.96
2023-04-02T08:06:31.431Z,79.21
2023-04-02T08:07:31.299Z,80.04
2023-04-02T08:08:31.334Z,80.15
2023-04-02T08:09:31.290Z,79.41
2023-04-02T08:10:31.386Z,79.52
2023-04-02T08:11:31.960Z,79.24
2023-04-02T08:12:31.282Z,78.93
2023-04-02T08:13:31.280Z,79.03
2023-04-02T08:14:31.279Z,80.60
2023-04-02T08:15:31.276Z,79.03
2023-04-02T08:16:31.233Z,78.72
2023-04-02T08:17:31.404Z,79.66
2023-04-02T08:18:31.312Z,79.35
2023-04-02T08:19:31.904Z,79.87
2023-04-02T08:20:31.213Z,79.97
2023-04-02T08:21:31.136Z,79.55
2023-04-02T08:22:31.216Z,79.55
2023-04-02T08:23:31.128Z,80.15
2023-04-02T08:24:31.120Z,79.72
2023-04-02T08:25:31.113Z,79.00
2023-04-02T08:26:31.098Z,79.00
2023-04-02T08:27:31.158Z,79.72
2023-04-02T08:28:31.061Z,80.15
2023-04-02T08:29:31.034Z,78.93
2023-04-02T08:30:31.034Z,79.94
2023-04-02T08:31:31.054Z,77.75
2023-04-02T08:32:31.102Z,78.52
2023-04-02T08:33:31.098Z,78.62
2023-04-02T08:34:31.037Z,78.83
2023-04-02T08:35:31.040Z,79.55
2023-04-02T08:36:31.044Z,78.31
2023-04-02T08:37:31.122Z,78.52
2023-04-02T08:38:31.129Z,78.93
2023-04-02T08:39:31.021Z,78.83
2023-04-02T08:40:30.991Z,78.86
2023-04-02T08:41:30.962Z,78.97
2023-04-02T08:42:30.961Z,78.76
2023-04-02T08:43:31.037Z,79.35
2023-04-02T08:44:30.934Z,80.18
2023-04-02T08:45:30.929Z,79.91
2023-04-02T08:46:31.027Z,80.60
2023-04-02T08:47:30.940Z,80.70
2023-04-02T08:48:30.944Z,81.43
2023-04-02T08:49:30.989Z,79.55
2023-04-02T08:50:30.897Z,79.35
2023-04-02T08:51:30.890Z,79.76
2023-04-02T08:52:30.884Z,79.03
2023-04-02T08:53:30.955Z,78.10
2023-04-02T08:54:30.949Z,78.41
2023-04-02T08:55:30.846Z,78.62
2023-04-02T08:56:30.915Z,79.14
2023-04-02T08:57:30.916Z,78.10
2023-04-02T08:58:30.808Z,78.66
2023-04-02T08:59:30.879Z,78.86
2023-04-02T09:00:30.783Z,79.87
2023-04-02T09:01:30.844Z,79.14
2023-04-02T09:02:30.729Z,78.31
2023-04-02T09:03:30.761Z,78.93
2023-04-02T09:04:30.831Z,78.52
2023-04-02T09:05:30.777Z,78.93
2023-04-02T09:06:30.703Z,78.41
2023-04-02T09:07:30.772Z,78.41
2023-04-02T09:08:30.649Z,78.72
2023-04-02T09:09:30.666Z,78.31
2023-04-02T09:10:30.694Z,78.62
2023-04-02T09:11:30.613Z,78.41
2023-04-02T09:12:30.626Z,78.10
2023-04-02T09:13:30.575Z,78.52
2023-04-02T09:14:30.567Z,78.62
2023-04-02T09:15:30.665Z,78.89
2023-04-02T09:16:30.619Z,78.38
2023-04-02T09:17:36.926Z,79.10
2023-04-02T09:18:30.678Z,79.27
2023-04-02T09:19:30.505Z,80.11
2023-04-02T09:20:30.530Z,79.55
2023-04-02T09:21:30.552Z,77.16
2023-04-02T09:22:30.486Z,76.54
2023-04-02T09:23:30.527Z,76.68
2023-04-02T09:24:30.464Z,76.78
2023-04-02T09:25:30.586Z,76.99
2023-04-02T09:26:30.511Z,76.89
2023-04-02T09:27:30.525Z,76.16
2023-04-02T09:28:30.463Z,76.47
2023-04-02T09:29:30.458Z,77.47
2023-04-02T09:30:30.399Z,75.71
2023-04-02T09:31:30.553Z,75.74
2023-04-02T09:32:30.453Z,75.64
2023-04-02T09:33:30.471Z,76.12
2023-04-02T09:34:30.399Z,75.92
2023-04-02T09:35:30.387Z,75.19
2023-04-02T09:36:30.454Z,75.22
2023-04-02T09:37:30.494Z,75.43
2023-04-02T09:38:30.426Z,75.74
2023-04-02T09:39:30.331Z,75.01
2023-04-02T09:40:30.274Z,75.85
2023-04-02T09:41:30.367Z,76.12
2023-04-02T09:42:30.304Z,75.40
2023-04-02T09:43:30.343Z,75.46
2023-04-02T09:44:30.272Z,75.05
2023-04-02T09:45:30.216Z,74.63
2023-04-02T09:46:30.406Z,75.15
2023-04-02T09:47:30.257Z,75.67
2023-04-02T09:48:30.517Z,75.85
2023-04-02T09:49:30.281Z,76.06
2023-04-02T09:50:30.228Z,75.46
2023-04-02T09:51:30.167Z,71.49
2023-04-02T09:52:30.227Z,69.39
2023-04-02T09:53:30.144Z,68.56
2023-04-02T09:54:30.151Z,68.59
2023-04-02T09:55:30.222Z,69.14
2023-04-02T09:56:30.116Z,69.38
2023-04-02T09:57:30.170Z,69.87
2023-04-02T09:58:30.091Z,69.48
2023-04-02T09:59:30.087Z,69.69
2023-04-02T10:00:32.440Z,70.00
2023-04-02T10:01:30.154Z,69.07
2023-04-02T10:02:30.161Z,68.34
2023-04-02T10:03:30.075Z,68.40
2023-04-02T10:04:30.067Z,66.94
2023-04-02T10:05:39.429Z,66.77
2023-04-02T10:06:30.076Z,67.83
2023-04-02T10:07:30.028Z,69.39
2023-04-02T10:08:30.132Z,70.50
2023-04-02T10:09:29.999Z,69.53
2023-04-02T10:10:30.081Z,67.67
2023-04-02T10:11:36.454Z,66.94
2023-04-02T10:12:30.026Z,66.97
2023-04-02T10:13:30.116Z,67.49
2023-04-02T10:14:30.014Z,67.63
2023-04-02T10:15:29.985Z,67.94
2023-04-02T10:16:30.048Z,68.38
2023-04-02T10:17:30.012Z,68.80
2023-04-02T10:18:29.865Z,69.21
2023-04-02T10:19:29.979Z,68.46
2023-04-02T10:20:32.244Z,68.70
2023-04-02T10:21:29.837Z,68.49
2023-04-02T10:22:29.943Z,68.73
2023-04-02T10:23:29.917Z,69.14
2023-04-02T10:24:29.988Z,69.87
2023-04-02T10:25:29.896Z,70.49
2023-04-02T10:26:29.783Z,69.53
2023-04-02T10:27:29.920Z,69.45
2023-04-02T10:28:29.871Z,69.56
2023-04-02T10:29:29.948Z,70.49
2023-04-02T10:30:29.984Z,70.76
2023-04-02T10:31:29.843Z,69.90
2023-04-02T10:32:29.917Z,68.46
2023-04-02T10:33:29.803Z,68.66
2023-04-02T10:34:29.857Z,69.49
2023-04-02T10:35:29.772Z,68.70
2023-04-02T10:36:29.742Z,69.01
2023-04-02T10:37:29.716Z,68.87
2023-04-02T10:38:29.866Z,68.38
2023-04-02T10:39:29.726Z,69.42
2023-04-02T10:40:29.695Z,68.77
2023-04-02T10:41:29.675Z,67.54
2023-04-02T10:42:29.734Z,66.42
2023-04-02T10:43:29.622Z,67.27
2023-04-02T10:44:29.610Z,66.33
2023-04-02T10:45:29.586Z,67.30
2023-04-02T10:46:29.715Z,64.11
2023-04-02T10:47:29.688Z,65.09
2023-04-02T10:48:29.559Z,65.29
2023-04-02T10:49:29.581Z,67.18
2023-04-02T10:50:29.615Z,67.70
2023-04-02T10:51:29.695Z,66.47
2023-04-02T10:52:29.526Z,65.05
2023-04-02T10:53:29.505Z,65.05
2023-04-02T10:54:29.557Z,66.22
2023-04-02T10:55:29.561Z,66.94
2023-04-02T10:56:35.135Z,65.99
2023-04-02T10:57:29.580Z,66.36
2023-04-02T10:58:29.516Z,67.50
2023-04-02T10:59:29.556Z,66.96
2023-04-02T11:00:29.472Z,66.54
2023-04-02T11:01:29.762Z,65.95
2023-04-02T11:02:29.554Z,66.63
2023-04-02T11:03:29.705Z,67.57
2023-04-02T11:04:29.524Z,68.08
2023-04-02T11:05:29.382Z,66.97
2023-04-02T11:06:29.483Z,67.39
2023-04-02T11:07:29.470Z,67.60
2023-04-02T11:08:29.467Z,68.12
2023-04-02T11:09:29.510Z,67.83
2023-04-02T11:10:29.362Z,68.01
2023-04-02T11:11:29.375Z,68.94
2023-04-02T11:12:29.434Z,69.64
2023-04-02T11:13:29.502Z,69.22
2023-04-02T11:14:29.414Z,68.80
2023-04-02T11:15:29.369Z,69.67
2023-04-02T11:16:29.386Z,68.53
2023-04-02T11:17:29.289Z,70.01
2023-04-02T11:18:29.245Z,70.21
2023-04-02T11:19:29.348Z,70.42
2023-04-02T11:20:29.331Z,71.36
2023-04-02T11:21:29.313Z,71.25
2023-04-02T11:22:29.301Z,71.15
2023-04-02T11:23:29.281Z,71.88
2023-04-02T11:24:29.339Z,71.15
2023-04-02T11:25:29.254Z,70.42
2023-04-02T11:26:29.238Z,70.63
2023-04-02T11:27:29.219Z,71.04
2023-04-02T11:28:29.212Z,70.97
2023-04-02T11:29:29.257Z,72.19
2023-04-02T11:30:29.227Z,70.32
2023-04-02T11:31:29.284Z,69.94
2023-04-02T11:32:29.260Z,69.84
2023-04-02T11:33:36.523Z,69.80
2023-04-02T11:34:29.206Z,70.53
2023-04-02T11:35:29.136Z,70.08
2023-04-02T11:36:29.108Z,69.77
2023-04-02T11:37:29.105Z,69.64
2023-04-02T11:38:29.099Z,68.91
2023-04-02T11:39:29.087Z,69.64
2023-04-02T11:40:29.146Z,68.26
2023-04-02T11:41:29.060Z,67.85
2023-04-02T11:42:29.061Z,67.85
2023-04-02T11:43:29.041Z,67.43
2023-04-02T11:44:29.028Z,67.15
2023-04-02T11:45:29.024Z,68.29
2023-04-02T11:46:29.128Z,67.88
2023-04-02T11:47:29.016Z,67.91
2023-04-02T11:48:29.030Z,68.29
2023-04-02T11:49:28.976Z,67.98
2023-04-02T11:50:28.944Z,67.25
2023-04-02T11:51:28.932Z,68.12
2023-04-02T11:52:29.015Z,68.12
2023-04-02T11:53:29.005Z,68.01
2023-04-02T11:54:28.917Z,68.32
2023-04-02T11:55:28.912Z,68.74
2023-04-02T11:56:28.907Z,67.91
2023-04-02T11:57:29.029Z,67.91
2023-04-02T11:58:28.815Z,67.70
2023-04-02T11:59:28.808Z,67.94
2023-04-02T12:00:28.762Z,68.15
2023-04-02T12:01:28.852Z,68.32
2023-04-02T12:02:29.027Z,68.15
2023-04-02T12:03:28.951Z,69.08
2023-04-02T12:04:28.773Z,69.18
2023-04-02T12:05:28.842Z,69.04
2023-04-02T12:06:28.750Z,69.15
2023-04-02T12:07:28.768Z,69.67
2023-04-02T12:08:28.882Z,69.46
2023-04-02T12:09:28.776Z,70.05
2023-04-02T12:10:28.811Z,68.43
2023-04-02T12:11:28.681Z,68.43
2023-04-02T12:12:28.725Z,68.40
2023-04-02T12:13:28.751Z,67.67
2023-04-02T12:14:28.776Z,67.70
2023-04-02T12:15:28.780Z,67.70
2023-04-02T12:16:28.755Z,69.04
2023-04-02T12:17:28.668Z,68.74
2023-04-02T12:18:28.668Z,69.15
2023-04-02T12:19:28.751Z,68.66
2023-04-02T12:20:28.655Z,68.74
2023-04-02T12:21:28.657Z,69.87
2023-04-02T12:22:28.573Z,68.60
2023-04-02T12:23:28.629Z,67.77
2023-04-02T12:24:28.540Z,67.98
2023-04-02T12:25:28.685Z,68.36
2023-04-02T12:26:28.578Z,67.36
2023-04-02T12:27:28.570Z,68.12
2023-04-02T12:28:28.544Z,68.32
2023-04-02T12:29:28.525Z,68.80
2023-04-02T12:30:28.615Z,69.12
2023-04-02T12:31:28.639Z,68.91
2023-04-02T12:32:29.780Z,69.04
2023-04-02T12:33:28.518Z,68.94
2023-04-02T12:34:28.433Z,69.22
2023-04-02T12:35:28.461Z,70.01
2023-04-02T12:36:28.541Z,66.53
2023-04-02T12:37:28.465Z,67.05
2023-04-02T12:38:28.466Z,67.67
2023-04-02T12:39:28.785Z,67.88
2023-04-02T12:40:28.401Z,67.85
2023-04-02T12:41:28.514Z,66.71
2023-04-02T12:42:28.466Z,65.16
2023-04-02T12:43:28.416Z,65.29
2023-04-02T12:44:28.440Z,65.50
2023-04-02T12:45:29.582Z,65.08
2023-04-02T12:46:28.462Z,66.29
2023-04-02T12:47:28.436Z,64.77
2023-04-02T12:48:28.334Z,64.80
2023-04-02T12:49:28.329Z,65.19
2023-04-02T12:50:28.323Z,65.50
2023-04-02T12:51:28.503Z,65.57
2023-04-02T12:52:28.428Z,64.74
2023-04-02T12:53:28.426Z,63.37